Centennial, Wyoming
Current Conditions -  °F | °C
As of 12:53 AM on Saturday 20 Dec 2014 (Local Time) from KLAR Reporting Station
Scattered Clouds Scattered Clouds  
Wind Chill: 19°   Ceiling: Unl
Heat Index: 28°   Visibility: 10mi
Dew Point: 16°   Wind: 9mph
Humidity: 61%   Direction: 220°SW
Pressure: 30.02"   Gusts: NA
Location:  41.3°N, 106.14°W
Report Text: KLAR 200753Z AUTO 22008KT 10SM SCT085 M02/M09 A3002 RMK AO2 SLP168 T10221089
Loading
Personal Weather Stations






























Interactive Weather Map New forecast layout! Learn more

10-Day Weather Forecast

Advertisements
Track Severe Weather on mobile